createdAt,value
2023-03-12T00:01:17.110Z,77.60
2023-03-12T00:03:44.859Z,77.42
2023-03-12T00:06:12.737Z,77.21
2023-03-12T00:08:42.302Z,77.21
2023-03-12T00:11:11.853Z,76.86
2023-03-12T00:13:39.964Z,78.13
2023-03-12T00:16:10.077Z,77.55
2023-03-12T00:18:37.847Z,77.81
2023-03-12T00:21:06.979Z,77.17
2023-03-12T00:23:35.143Z,76.60
2023-03-12T00:26:06.785Z,77.48
2023-03-12T00:28:35.505Z,76.75
2023-03-12T00:31:03.579Z,76.98
2023-03-12T00:33:31.415Z,76.05
2023-03-12T00:36:01.913Z,76.65
2023-03-12T00:38:29.703Z,76.46
2023-03-12T00:40:57.405Z,76.81
2023-03-12T00:43:26.645Z,76.85
2023-03-12T00:45:54.391Z,76.92
2023-03-12T00:48:22.060Z,77.24
2023-03-12T00:50:49.712Z,76.55
2023-03-12T00:53:17.456Z,76.72
2023-03-12T00:55:45.288Z,78.25
2023-03-12T00:58:12.978Z,76.74
2023-03-12T01:00:42.097Z,76.17
2023-03-12T01:03:09.812Z,76.64
2023-03-12T01:05:40.518Z,76.35
2023-03-12T01:08:09.140Z,77.06
2023-03-12T01:10:37.649Z,77.81
2023-03-12T01:13:05.308Z,76.49
2023-03-12T01:15:33.217Z,76.52
2023-03-12T01:18:02.294Z,75.95
2023-03-12T01:20:30.045Z,76.67
2023-03-12T01:22:57.870Z,76.38
2023-03-12T01:25:25.615Z,76.76
2023-03-12T01:27:53.284Z,77.46
2023-03-12T01:30:20.987Z,76.31
2023-03-12T01:32:48.754Z,76.64
2023-03-12T01:35:17.862Z,76.89
2023-03-12T01:37:45.589Z,76.64
2023-03-12T01:40:15.994Z,77.65
2023-03-12T01:42:43.440Z,77.77
2023-03-12T01:45:44.378Z,76.77
2023-03-12T01:48:12.079Z,76.85
2023-03-12T01:50:41.181Z,77.00
2023-03-12T01:53:08.980Z,77.20
2023-03-12T01:55:36.688Z,77.23
2023-03-12T01:58:04.557Z,77.00
2023-03-12T02:00:32.217Z,77.31
2023-03-12T02:03:03.296Z,77.34
2023-03-12T02:05:34.652Z,77.91
2023-03-12T02:08:03.673Z,79.08
2023-03-12T02:10:31.310Z,79.42
2023-03-12T02:12:59.134Z,79.58
2023-03-12T02:15:27.749Z,79.31
2023-03-12T02:17:55.576Z,79.25
2023-03-12T02:20:29.079Z,79.95
2023-03-12T02:23:04.763Z,80.24
2023-03-12T02:25:38.470Z,80.17
2023-03-12T02:28:09.547Z,80.31
2023-03-12T02:30:38.134Z,79.67
2023-03-12T02:33:08.711Z,80.62
2023-03-12T02:35:37.543Z,80.15
2023-03-12T02:38:25.575Z,79.33
2023-03-12T02:40:56.853Z,79.45
2023-03-12T02:43:24.905Z,79.52
2023-03-12T02:45:52.684Z,80.68
2023-03-12T02:48:20.426Z,80.37
2023-03-12T02:50:48.084Z,80.58
2023-03-12T02:53:15.914Z,80.87
2023-03-12T02:55:43.601Z,80.72
2023-03-12T02:58:12.727Z,80.81
2023-03-12T03:00:40.401Z,80.76
2023-03-12T03:03:08.107Z,81.31
2023-03-12T03:05:37.777Z,81.35
2023-03-12T03:08:06.376Z,81.28
2023-03-12T03:10:34.095Z,81.13
2023-03-12T03:13:01.764Z,81.53
2023-03-12T03:15:30.808Z,81.74
2023-03-12T03:17:59.244Z,81.29
2023-03-12T03:20:26.996Z,81.64
2023-03-12T03:22:54.682Z,82.38
2023-03-12T03:25:23.564Z,82.43
2023-03-12T03:27:51.296Z,82.56
2023-03-12T03:30:19.348Z,82.70
2023-03-12T03:32:48.760Z,83.02
2023-03-12T03:35:16.737Z,83.50
2023-03-12T03:37:44.488Z,83.35
2023-03-12T03:40:13.461Z,83.43
2023-03-12T03:42:41.402Z,83.69
2023-03-12T03:45:10.200Z,83.82
2023-03-12T03:47:37.986Z,83.61
2023-03-12T03:50:08.461Z,83.19
2023-03-12T03:52:35.898Z,83.03
2023-03-12T03:55:03.669Z,82.95
2023-03-12T03:57:31.343Z,83.22
2023-03-12T04:00:03.392Z,83.90
2023-03-12T04:02:31.361Z,84.13
2023-03-12T04:04:59.400Z,83.67
2023-03-12T04:07:29.119Z,83.21
2023-03-12T04:09:57.582Z,83.71
2023-03-12T04:12:26.113Z,84.29
2023-03-12T04:14:53.908Z,84.42
2023-03-12T04:17:21.619Z,85.21
2023-03-12T04:19:49.300Z,85.37
2023-03-12T04:22:16.994Z,84.82
2023-03-12T04:24:46.520Z,84.71
2023-03-12T04:27:14.209Z,84.90
2023-03-12T04:29:42.065Z,85.18
2023-03-12T04:32:09.783Z,85.27
2023-03-12T04:34:37.486Z,85.39
2023-03-12T04:37:05.120Z,85.87
2023-03-12T04:39:32.829Z,86.17
2023-03-12T04:42:01.811Z,85.69
2023-03-12T04:44:29.605Z,86.12
2023-03-12T04:46:57.323Z,86.16
2023-03-12T04:49:25.011Z,86.30
2023-03-12T04:51:52.649Z,86.64
2023-03-12T04:54:21.349Z,87.73
2023-03-12T04:56:49.217Z,87.59
2023-03-12T04:59:18.424Z,87.82
2023-03-12T05:01:46.093Z,88.09
2023-03-12T05:04:13.821Z,88.12
2023-03-12T05:06:41.516Z,88.57
2023-03-12T05:09:09.281Z,89.40
2023-03-12T05:11:39.611Z,89.32
2023-03-12T05:14:07.527Z,89.28
2023-03-12T05:16:36.621Z,90.11
2023-03-12T05:19:04.910Z,90.13
2023-03-12T05:21:32.604Z,90.11
2023-03-12T05:24:00.560Z,90.40
2023-03-12T05:26:31.414Z,90.31
2023-03-12T05:28:59.562Z,90.91
2023-03-12T05:31:27.657Z,91.44
2023-03-12T05:33:56.715Z,91.77
2023-03-12T05:36:24.402Z,91.09
2023-03-12T05:38:52.447Z,91.28
2023-03-12T05:41:23.018Z,91.25
2023-03-12T05:43:50.712Z,91.67
2023-03-12T05:46:18.391Z,91.07
2023-03-12T05:48:46.100Z,91.29
2023-03-12T05:51:15.551Z,91.86
2023-03-12T05:53:43.260Z,92.39
2023-03-12T05:56:13.926Z,92.43
2023-03-12T05:58:42.170Z,92.50
2023-03-12T06:01:13.406Z,92.30
2023-03-12T06:03:42.818Z,92.01
2023-03-12T06:06:10.576Z,92.66
2023-03-12T06:08:39.967Z,92.63
2023-03-12T06:11:07.718Z,92.87
2023-03-12T06:13:35.504Z,92.49
2023-03-12T06:16:05.379Z,92.54
2023-03-12T06:18:33.183Z,92.17
2023-03-12T06:21:12.472Z,91.98
2023-03-12T06:23:41.939Z,91.47
2023-03-12T06:26:10.366Z,91.35
2023-03-12T06:28:38.645Z,90.78
2023-03-12T06:31:06.972Z,90.67
2023-03-12T06:33:35.230Z,91.08
2023-03-12T06:36:05.019Z,90.61
2023-03-12T06:38:33.086Z,91.07
2023-03-12T06:41:04.513Z,90.76
2023-03-12T06:43:33.932Z,90.05
2023-03-12T06:46:02.192Z,90.20
2023-03-12T06:48:31.016Z,90.46
2023-03-12T06:50:58.776Z,90.38
2023-03-12T06:53:27.195Z,90.28
2023-03-12T06:55:54.900Z,90.25
2023-03-12T06:58:23.969Z,89.39
2023-03-12T07:00:51.996Z,88.92
2023-03-12T07:03:19.682Z,88.53
2023-03-12T07:05:48.957Z,89.31
2023-03-12T07:08:18.482Z,88.85
2023-03-12T07:10:46.644Z,88.15
2023-03-12T07:13:14.330Z,88.79
2023-03-12T07:15:44.992Z,88.83
2023-03-12T07:18:13.151Z,87.75
2023-03-12T07:20:42.421Z,87.20
2023-03-12T07:23:10.562Z,86.50
2023-03-12T07:25:38.598Z,87.08
2023-03-12T07:28:07.135Z,86.75
2023-03-12T07:30:35.184Z,87.30
2023-03-12T07:33:04.884Z,86.70
2023-03-12T07:35:33.513Z,86.63
2023-03-12T07:38:02.135Z,86.47
2023-03-12T07:40:30.230Z,86.71
2023-03-12T07:42:58.475Z,86.44
2023-03-12T07:45:26.404Z,86.63
2023-03-12T07:47:54.185Z,85.64
2023-03-12T07:50:23.272Z,85.56
2023-03-12T07:52:51.539Z,85.43
2023-03-12T07:55:19.554Z,85.74
2023-03-12T07:57:47.357Z,86.16
2023-03-12T08:00:17.101Z,84.51
2023-03-12T08:02:45.703Z,85.24
2023-03-12T08:05:13.578Z,83.53
2023-03-12T08:07:42.614Z,83.98
2023-03-12T08:10:11.924Z,82.96
2023-03-12T08:12:39.668Z,81.27
2023-03-12T08:15:09.509Z,80.77
2023-03-12T08:17:37.220Z,81.21
2023-03-12T08:20:05.815Z,80.22
2023-03-12T08:22:33.552Z,79.86
2023-03-12T08:25:02.625Z,80.29
2023-03-12T08:27:30.368Z,79.10
2023-03-12T08:29:58.059Z,78.73
2023-03-12T08:32:26.112Z,79.58
2023-03-12T08:34:53.939Z,80.01
2023-03-12T08:37:22.552Z,80.14
2023-03-12T08:39:50.192Z,78.20
2023-03-12T08:42:19.274Z,77.43
2023-03-12T08:44:46.908Z,77.21
2023-03-12T08:47:14.666Z,77.53
2023-03-12T08:49:42.297Z,76.78
2023-03-12T08:52:10.027Z,74.85
2023-03-12T08:54:37.847Z,74.21
2023-03-12T08:57:05.458Z,74.72
2023-03-12T08:59:34.501Z,74.44
2023-03-12T09:02:02.348Z,73.19
2023-03-12T09:04:30.078Z,73.89
2023-03-12T09:06:57.784Z,73.25
2023-03-12T09:09:25.368Z,74.34
2023-03-12T09:11:53.047Z,72.89
2023-03-12T09:17:09.671Z,71.51
2023-03-12T09:19:37.364Z,69.16
2023-03-12T09:22:05.050Z,68.99
2023-03-12T09:24:32.899Z,67.63
2023-03-12T09:27:00.786Z,69.38
2023-03-12T09:29:28.384Z,66.10
2023-03-12T09:32:00.287Z,65.55
2023-03-12T09:34:29.335Z,66.42
2023-03-12T09:36:57.207Z,66.06
2023-03-12T09:39:24.846Z,65.91
2023-03-12T09:41:52.788Z,67.58
2023-03-12T09:44:28.321Z,65.51
2023-03-12T09:47:00.947Z,65.26
2023-03-12T09:49:35.610Z,65.93
2023-03-12T09:52:09.453Z,65.69
2023-03-12T09:54:44.747Z,66.15
2023-03-12T09:57:20.596Z,65.13
2023-03-12T09:59:48.281Z,64.29
2023-03-12T10:02:43.009Z,64.47
2023-03-12T10:05:18.491Z,65.01
2023-03-12T10:07:53.215Z,65.72
2023-03-12T10:10:29.314Z,65.58
2023-03-12T10:13:12.821Z,64.64
2023-03-12T10:15:53.068Z,64.48
2023-03-12T10:18:34.485Z,65.08
2023-03-12T10:21:17.704Z,63.99
2023-03-12T10:24:01.482Z,63.74
2023-03-12T10:26:33.095Z,63.11
2023-03-12T10:29:05.391Z,63.30
2023-03-12T10:31:37.126Z,63.59
2023-03-12T10:34:14.603Z,63.24
2023-03-12T10:36:45.472Z,64.41
2023-03-12T10:39:16.724Z,64.43
2023-03-12T10:41:45.855Z,62.47
2023-03-12T10:44:19.536Z,62.55
2023-03-12T10:46:55.101Z,60.97
2023-03-12T10:49:29.202Z,61.29
2023-03-12T10:52:01.398Z,61.18
2023-03-12T10:54:32.378Z,61.49
2023-03-12T10:57:00.438Z,62.17
2023-03-12T10:59:31.390Z,62.09
2023-03-12T11:01:59.345Z,58.94
2023-03-12T11:04:30.366Z,58.67
2023-03-12T11:07:27.775Z,57.86
2023-03-12T11:10:15.208Z,57.51
2023-03-12T11:12:53.698Z,57.00
2023-03-12T11:15:24.451Z,56.76
2023-03-12T11:17:52.629Z,56.73
2023-03-12T11:20:28.003Z,56.47
2023-03-12T11:22:57.213Z,56.85
2023-03-12T11:25:27.896Z,54.97
2023-03-12T11:27:57.822Z,54.32
2023-03-12T11:30:34.867Z,52.30
2023-03-12T11:33:04.063Z,52.67
2023-03-12T11:35:46.398Z,53.59
2023-03-12T11:38:18.925Z,53.86
2023-03-12T11:41:04.484Z,54.02
2023-03-12T11:43:46.233Z,53.16
2023-03-12T11:46:28.142Z,53.92
2023-03-12T11:49:07.678Z,51.25
2023-03-12T11:51:47.434Z,51.62
2023-03-12T11:54:42.539Z,53.46
2023-03-12T11:57:16.948Z,53.24
2023-03-12T12:00:07.036Z,53.42
2023-03-12T12:02:57.843Z,54.03
2023-03-12T12:05:37.108Z,55.69
2023-03-12T12:08:24.246Z,54.98
2023-03-12T12:11:04.705Z,52.23
2023-03-12T12:13:42.860Z,53.17
2023-03-12T12:16:24.995Z,52.57
2023-03-12T12:19:05.563Z,51.63
2023-03-12T12:21:43.054Z,51.92
2023-03-12T12:24:22.514Z,51.67
2023-03-12T12:27:02.120Z,51.29
2023-03-12T12:29:52.076Z,51.32
2023-03-12T12:32:28.646Z,50.21
2023-03-12T12:35:16.183Z,49.82
2023-03-12T12:37:50.764Z,49.08
2023-03-12T12:40:24.295Z,49.07
2023-03-12T12:43:04.796Z,50.73
2023-03-12T12:45:32.488Z,47.24
2023-03-12T12:48:05.091Z,48.10
2023-03-12T12:50:37.184Z,48.94
2023-03-12T12:53:22.352Z,47.21
2023-03-12T12:56:01.158Z,46.43
2023-03-12T12:58:45.580Z,47.31
2023-03-12T13:01:15.954Z,46.88
2023-03-12T13:03:45.534Z,45.90
2023-03-12T13:06:13.243Z,46.07
2023-03-12T13:09:02.239Z,45.36
2023-03-12T13:11:39.314Z,43.88
2023-03-12T13:14:20.237Z,43.83
2023-03-12T13:16:49.077Z,44.64
2023-03-12T13:19:27.189Z,45.32
2023-03-12T13:22:11.848Z,47.16
2023-03-12T13:24:46.322Z,47.63
2023-03-12T13:27:19.937Z,46.41
2023-03-12T13:29:55.205Z,45.04
2023-03-12T13:33:01.538Z,45.47
2023-03-12T13:35:37.311Z,45.86
2023-03-12T13:38:08.374Z,44.59
2023-03-12T13:40:55.842Z,44.45
2023-03-12T13:43:48.721Z,46.01
2023-03-12T13:46:30.818Z,46.94
2023-03-12T13:49:04.586Z,46.85
2023-03-12T13:51:32.423Z,46.46
2023-03-12T13:54:02.709Z,46.67
2023-03-12T13:56:33.204Z,47.45
2023-03-12T13:59:02.380Z,46.75
2023-03-12T14:01:36.522Z,47.40
2023-03-12T14:04:08.987Z,48.05
2023-03-12T14:06:51.119Z,48.31
2023-03-12T14:09:25.535Z,48.40
2023-03-12T14:12:00.438Z,48.95
2023-03-12T14:14:48.007Z,48.33
2023-03-12T14:17:20.207Z,49.26
2023-03-12T14:19:51.786Z,48.63
2023-03-12T14:22:22.648Z,49.07
2023-03-12T14:24:54.345Z,49.22
2023-03-12T14:27:27.166Z,49.42
2023-03-12T14:29:59.133Z,49.37
2023-03-12T14:32:32.225Z,50.19
2023-03-12T14:35:18.809Z,47.79
2023-03-12T14:37:53.871Z,48.60
2023-03-12T14:40:25.387Z,48.50
2023-03-12T14:42:53.218Z,47.91
2023-03-12T14:45:23.809Z,47.93
2023-03-12T14:47:56.801Z,47.94
2023-03-12T14:50:27.643Z,47.23
2023-03-12T14:52:56.925Z,48.39
2023-03-12T14:55:26.761Z,48.56
2023-03-12T14:58:04.917Z,48.92
2023-03-12T15:00:33.035Z,49.25
2023-03-12T15:03:11.901Z,50.30
2023-03-12T15:05:39.922Z,50.85
2023-03-12T15:08:08.832Z,50.54
2023-03-12T15:10:37.758Z,50.72
2023-03-12T15:13:05.783Z,49.68
2023-03-12T15:15:41.374Z,50.70
2023-03-12T15:18:14.904Z,49.68
2023-03-12T15:20:42.930Z,50.29
2023-03-12T15:23:13.050Z,50.78
2023-03-12T15:25:41.463Z,50.98
2023-03-12T15:28:25.618Z,51.27
2023-03-12T15:31:07.731Z,50.70
2023-03-12T15:33:37.343Z,51.22
2023-03-12T15:36:16.958Z,51.41
2023-03-12T15:38:48.342Z,51.55
2023-03-12T15:41:19.624Z,52.88
2023-03-12T15:43:53.016Z,53.77
2023-03-12T15:46:20.932Z,55.17
2023-03-12T15:48:52.296Z,56.05
2023-03-12T15:51:35.720Z,57.07
2023-03-12T15:54:07.226Z,57.93
2023-03-12T15:56:36.291Z,59.27
2023-03-12T15:59:19.413Z,59.98
2023-03-12T16:01:47.922Z,60.12
2023-03-12T16:04:17.023Z,60.33
2023-03-12T16:06:48.163Z,59.83
2023-03-12T16:09:19.781Z,59.95
2023-03-12T16:11:48.690Z,60.53
2023-03-12T16:14:20.278Z,61.20
2023-03-12T16:16:48.508Z,62.27
2023-03-12T16:19:19.408Z,62.51
2023-03-12T16:21:47.535Z,62.85
2023-03-12T16:24:16.416Z,63.11
2023-03-12T16:26:49.366Z,64.26
2023-03-12T16:29:19.106Z,65.65
2023-03-12T16:31:50.311Z,66.13
2023-03-12T16:34:19.362Z,66.58
2023-03-12T16:36:46.925Z,67.52
2023-03-12T16:39:14.626Z,67.03
2023-03-12T16:41:43.072Z,67.03
2023-03-12T16:44:16.719Z,66.80
2023-03-12T16:46:46.149Z,67.33
2023-03-12T16:49:15.784Z,67.48
2023-03-12T16:51:45.088Z,68.06
2023-03-12T16:54:12.868Z,68.40
2023-03-12T16:56:43.927Z,69.43
2023-03-12T16:59:19.076Z,70.62
2023-03-12T17:01:46.765Z,72.27
2023-03-12T17:04:14.515Z,73.63
2023-03-12T17:06:42.301Z,75.29
2023-03-12T17:09:11.310Z,76.10
2023-03-12T17:11:39.557Z,77.27
2023-03-12T17:14:18.180Z,77.49
2023-03-12T17:16:46.276Z,77.94
2023-03-12T17:19:14.060Z,78.75
2023-03-12T17:21:41.951Z,79.45
2023-03-12T17:24:11.475Z,78.38
2023-03-12T17:26:39.162Z,78.95
2023-03-12T17:29:06.871Z,79.39
2023-03-12T17:31:36.034Z,79.50
2023-03-12T17:34:04.009Z,79.32
2023-03-12T17:36:31.725Z,79.41
2023-03-12T17:38:59.381Z,79.59
2023-03-12T17:41:28.370Z,79.00
2023-03-12T17:43:58.684Z,79.12
2023-03-12T17:46:26.344Z,79.04
2023-03-12T17:48:54.231Z,79.53
2023-03-12T17:51:22.298Z,79.94
2023-03-12T17:53:50.015Z,81.29
2023-03-12T17:56:19.115Z,82.25
2023-03-12T17:58:48.496Z,83.79
2023-03-12T18:01:17.554Z,85.24
2023-03-12T18:03:45.377Z,87.02
2023-03-12T18:06:13.407Z,89.00
2023-03-12T18:08:41.081Z,90.41
2023-03-12T18:11:08.744Z,91.84
2023-03-12T18:13:36.346Z,93.02
2023-03-12T18:16:05.916Z,93.75
2023-03-12T18:18:33.745Z,95.65
2023-03-12T18:21:01.395Z,97.08
2023-03-12T18:23:29.041Z,98.27
2023-03-12T18:25:56.729Z,98.48
2023-03-12T18:28:24.350Z,99.24
2023-03-12T18:30:54.364Z,99.67
2023-03-12T18:33:23.358Z,100.00
2023-03-12T18:35:53.868Z,100.00
2023-03-12T18:38:21.989Z,100.00
2023-03-12T18:40:51.269Z,100.00
2023-03-12T18:43:20.793Z,100.00
2023-03-12T18:45:50.728Z,100.00
2023-03-12T18:48:18.336Z,100.00
2023-03-12T18:50:47.298Z,100.00
2023-03-12T18:53:14.964Z,100.00
2023-03-12T18:55:42.911Z,100.00
2023-03-12T18:58:10.618Z,100.00
2023-03-12T19:00:38.336Z,100.00
2023-03-12T19:03:06.093Z,100.00
2023-03-12T19:05:33.846Z,100.00
2023-03-12T19:08:02.842Z,100.00
2023-03-12T19:10:30.628Z,100.00
2023-03-12T19:12:59.076Z,100.00
2023-03-12T19:15:26.898Z,100.00
2023-03-12T19:17:54.852Z,100.00
2023-03-12T19:20:22.873Z,100.00
2023-03-12T19:22:50.772Z,100.00
2023-03-12T19:25:20.022Z,100.00
2023-03-12T19:27:47.707Z,100.00
2023-03-12T19:30:15.991Z,100.00
2023-03-12T19:32:44.731Z,100.00
2023-03-12T19:35:14.703Z,100.00
2023-03-12T19:37:43.115Z,100.00
2023-03-12T19:40:13.197Z,100.00
2023-03-12T19:42:42.356Z,100.00
2023-03-12T19:45:11.180Z,100.00
2023-03-12T19:47:38.850Z,100.00
2023-03-12T19:50:07.558Z,100.00
2023-03-12T19:52:35.239Z,100.00
2023-03-12T19:55:05.455Z,100.00
2023-03-12T19:57:33.520Z,100.00
2023-03-12T20:00:07.191Z,100.00
2023-03-12T20:02:36.586Z,100.00
2023-03-12T20:05:04.396Z,100.00
2023-03-12T20:07:32.086Z,100.00
2023-03-12T20:09:59.806Z,100.00
2023-03-12T20:12:27.668Z,100.00
2023-03-12T20:14:55.345Z,100.00
2023-03-12T20:17:24.341Z,100.00
2023-03-12T20:19:52.014Z,100.00
2023-03-12T20:22:19.836Z,100.00
2023-03-12T20:24:47.835Z,100.00
2023-03-12T20:27:16.106Z,100.00
2023-03-12T20:29:46.055Z,100.00
2023-03-12T20:32:13.755Z,100.00
2023-03-12T20:34:42.949Z,100.00
2023-03-12T20:37:10.633Z,100.00
2023-03-12T20:39:38.484Z,100.00
2023-03-12T20:42:06.334Z,100.00
2023-03-12T20:44:33.992Z,100.00
2023-03-12T20:47:01.815Z,100.00
2023-03-12T20:49:29.493Z,100.00
2023-03-12T20:51:58.563Z,100.00
2023-03-12T20:54:27.286Z,100.00
2023-03-12T20:56:54.948Z,100.00
2023-03-12T20:59:22.673Z,100.00
2023-03-12T21:01:50.350Z,100.00
2023-03-12T21:04:18.099Z,100.00
2023-03-12T21:06:47.512Z,100.00
2023-03-12T21:09:16.511Z,100.00
2023-03-12T21:11:44.159Z,100.00
2023-03-12T21:14:11.927Z,100.00
2023-03-12T21:16:39.621Z,100.00
2023-03-12T21:19:07.406Z,100.00
2023-03-12T21:21:36.355Z,100.00
2023-03-12T21:24:04.303Z,100.00
2023-03-12T21:26:33.378Z,100.00
2023-03-12T21:29:01.009Z,100.00
2023-03-12T21:31:28.703Z,100.00
2023-03-12T21:33:56.889Z,100.00
2023-03-12T21:36:26.040Z,100.00
2023-03-12T21:38:53.699Z,100.00
2023-03-12T21:41:22.183Z,100.00
2023-03-12T21:43:51.186Z,100.00
2023-03-12T21:46:24.405Z,100.00
2023-03-12T21:48:52.237Z,100.00
2023-03-12T21:51:22.067Z,100.00
2023-03-12T21:53:54.489Z,100.00
2023-03-12T21:56:22.219Z,100.00
2023-03-12T21:58:51.242Z,100.00
2023-03-12T22:01:19.848Z,100.00
2023-03-12T22:03:47.782Z,100.00
2023-03-12T22:06:16.602Z,100.00
2023-03-12T22:08:45.209Z,100.00
2023-03-12T22:11:12.870Z,100.00
2023-03-12T22:13:40.539Z,100.00
2023-03-12T22:16:10.206Z,100.00
2023-03-12T22:18:39.538Z,100.00
2023-03-12T22:21:08.394Z,100.00
2023-03-12T22:23:37.121Z,100.00
2023-03-12T22:26:06.545Z,100.00
2023-03-12T22:28:34.749Z,100.00
2023-03-12T22:31:04.642Z,100.00
2023-03-12T22:33:35.610Z,100.00
2023-03-12T22:36:07.487Z,100.00
2023-03-12T22:38:36.566Z,100.00
2023-03-12T22:41:13.360Z,100.00
2023-03-12T22:43:41.124Z,100.00
2023-03-12T22:46:08.864Z,100.00
2023-03-12T22:48:38.143Z,100.00
2023-03-12T22:51:06.718Z,100.00
2023-03-12T22:53:35.097Z,100.00
2023-03-12T22:56:04.927Z,100.00
2023-03-12T22:58:32.859Z,100.00
2023-03-12T23:01:01.984Z,100.00
2023-03-12T23:03:31.145Z,100.00
2023-03-12T23:06:00.925Z,100.00
2023-03-12T23:08:29.051Z,100.00
2023-03-12T23:10:58.655Z,100.00
2023-03-12T23:13:27.715Z,100.00
2023-03-12T23:15:55.701Z,100.00
2023-03-12T23:18:23.407Z,100.00
2023-03-12T23:21:00.568Z,100.00
2023-03-12T23:23:29.015Z,100.00
2023-03-12T23:25:58.418Z,100.00
2023-03-12T23:28:27.238Z,100.00
2023-03-12T23:30:56.432Z,100.00
2023-03-12T23:33:24.235Z,100.00
2023-03-12T23:35:56.329Z,100.00
2023-03-12T23:38:26.248Z,100.00
2023-03-12T23:40:54.044Z,100.00
2023-03-12T23:43:21.680Z,100.00
2023-03-12T23:45:56.675Z,100.00
2023-03-12T23:48:24.483Z,100.00
2023-03-12T23:50:52.122Z,100.00
2023-03-12T23:53:19.971Z,100.00
2023-03-12T23:55:57.612Z,100.00
2023-03-12T23:58:25.966Z,100.00
